sensor_id;sensor_type;location;lat;lon;timestamp;pressure;altitude;pressure_sealevel;temperature;humidity
11682;BME280;5897;42.640;23.310;2022-08-03T00:02:05;93959.56;;;20.87;57.52
11682;BME280;5897;42.640;23.310;2022-08-03T00:04:32;93962.03;;;20.85;58.02
11682;BME280;5897;42.640;23.310;2022-08-03T00:06:59;93959.13;;;20.94;57.11
11682;BME280;5897;42.640;23.310;2022-08-03T00:09:26;93959.16;;;21.00;57.04
11682;BME280;5897;42.640;23.310;2022-08-03T00:11:52;93955.91;;;20.96;57.55
11682;BME280;5897;42.640;23.310;2022-08-03T00:14:19;93965.59;;;20.91;57.97
11682;BME280;5897;42.640;23.310;2022-08-03T00:16:46;93952.63;;;20.92;58.14
11682;BME280;5897;42.640;23.310;2022-08-03T00:19:14;93957.81;;;20.84;58.51
11682;BME280;5897;42.640;23.310;2022-08-03T00:21:41;93948.06;;;20.83;58.15
11682;BME280;5897;42.640;23.310;2022-08-03T00:24:07;93952.56;;;20.86;58.25
11682;BME280;5897;42.640;23.310;2022-08-03T00:26:34;93949.72;;;20.70;58.86
11682;BME280;5897;42.640;23.310;2022-08-03T00:29:01;93956.63;;;20.54;59.33
11682;BME280;5897;42.640;23.310;2022-08-03T00:31:28;93960.09;;;20.55;59.70
11682;BME280;5897;42.640;23.310;2022-08-03T00:33:54;93955.16;;;20.59;58.96
11682;BME280;5897;42.640;23.310;2022-08-03T00:36:22;93957.19;;;20.64;59.17
11682;BME280;5897;42.640;23.310;2022-08-03T00:38:49;93954.53;;;20.44;59.84
11682;BME280;5897;42.640;23.310;2022-08-03T00:41:16;93952.06;;;20.46;59.94
11682;BME280;5897;42.640;23.310;2022-08-03T00:43:42;93956.84;;;20.51;60.40
11682;BME280;5897;42.640;23.310;2022-08-03T00:46:11;93958.59;;;20.54;60.40
11682;BME280;5897;42.640;23.310;2022-08-03T00:48:39;93911.72;;;20.21;60.22
11682;BME280;5897;42.640;23.310;2022-08-03T00:51:06;93956.31;;;20.47;60.67
11682;BME280;5897;42.640;23.310;2022-08-03T00:53:35;93950.84;;;20.52;60.60
11682;BME280;5897;42.640;23.310;2022-08-03T00:56:02;93951.31;;;20.45;61.32
11682;BME280;5897;42.640;23.310;2022-08-03T00:58:29;93945.78;;;20.40;61.75
11682;BME280;5897;42.640;23.310;2022-08-03T01:00:56;93946.91;;;20.22;62.05
11682;BME280;5897;42.640;23.310;2022-08-03T01:03:23;93945.88;;;20.20;62.38
11682;BME280;5897;42.640;23.310;2022-08-03T01:05:54;93943.91;;;20.20;62.06
11682;BME280;5897;42.640;23.310;2022-08-03T01:08:27;93949.00;;;20.07;62.93
11682;BME280;5897;42.640;23.310;2022-08-03T01:11:05;93942.03;;;20.06;63.14
11682;BME280;5897;42.640;23.310;2022-08-03T01:13:40;93942.78;;;20.07;63.54
11682;BME280;5897;42.640;23.310;2022-08-03T01:16:16;93939.13;;;19.90;64.26
11682;BME280;5897;42.640;23.310;2022-08-03T01:18:46;93934.44;;;19.96;64.23
11682;BME280;5897;42.640;23.310;2022-08-03T01:21:20;93937.94;;;19.96;64.80
11682;BME280;5897;42.640;23.310;2022-08-03T01:23:58;93937.34;;;19.87;64.96
11682;BME280;5897;42.640;23.310;2022-08-03T01:26:51;93934.19;;;19.94;64.88
11682;BME280;5897;42.640;23.310;2022-08-03T01:29:37;93931.59;;;19.85;65.50
11682;BME280;5897;42.640;23.310;2022-08-03T01:32:10;93929.19;;;19.92;65.04
11682;BME280;5897;42.640;23.310;2022-08-03T01:34:44;93934.66;;;19.92;65.19
11682;BME280;5897;42.640;23.310;2022-08-03T01:37:15;93940.72;;;20.02;64.70
11682;BME280;5897;42.640;23.310;2022-08-03T01:39:44;93940.03;;;20.07;64.43
11682;BME280;5897;42.640;23.310;2022-08-03T01:42:13;93931.59;;;20.10;64.29
11682;BME280;5897;42.640;23.310;2022-08-03T01:44:42;93940.59;;;20.11;64.92
11682;BME280;5897;42.640;23.310;2022-08-03T01:47:11;93921.69;;;19.93;64.83
11682;BME280;5897;42.640;23.310;2022-08-03T01:49:42;93943.91;;;20.20;64.53
11682;BME280;5897;42.640;23.310;2022-08-03T01:52:10;93939.91;;;20.21;64.90
11682;BME280;5897;42.640;23.310;2022-08-03T01:54:42;93940.63;;;20.16;65.08
11682;BME280;5897;42.640;23.310;2022-08-03T01:57:10;93951.38;;;20.20;65.50
11682;BME280;5897;42.640;23.310;2022-08-03T01:59:38;93947.66;;;20.23;65.91
11682;BME280;5897;42.640;23.310;2022-08-03T02:02:07;93921.59;;;20.07;65.85
11682;BME280;5897;42.640;23.310;2022-08-03T02:04:38;93944.63;;;20.21;65.92
11682;BME280;5897;42.640;23.310;2022-08-03T02:07:06;93948.91;;;20.22;66.23
11682;BME280;5897;42.640;23.310;2022-08-03T02:09:36;93947.91;;;20.25;66.57
11682;BME280;5897;42.640;23.310;2022-08-03T02:12:07;93938.13;;;20.18;66.70
11682;BME280;5897;42.640;23.310;2022-08-03T02:14:34;93942.09;;;20.12;67.45
11682;BME280;5897;42.640;23.310;2022-08-03T02:17:02;93943.53;;;20.07;68.03
11682;BME280;5897;42.640;23.310;2022-08-03T02:19:32;93938.03;;;20.07;68.40
11682;BME280;5897;42.640;23.310;2022-08-03T02:22:01;93939.00;;;20.04;68.55
11682;BME280;5897;42.640;23.310;2022-08-03T02:24:29;93939.38;;;19.92;68.70
11682;BME280;5897;42.640;23.310;2022-08-03T02:26:58;93938.75;;;19.77;69.28
11682;BME280;5897;42.640;23.310;2022-08-03T02:29:30;93937.03;;;19.79;69.13
11682;BME280;5897;42.640;23.310;2022-08-03T02:31:59;93932.06;;;19.83;68.86
11682;BME280;5897;42.640;23.310;2022-08-03T02:34:32;93935.09;;;19.85;69.57
11682;BME280;5897;42.640;23.310;2022-08-03T02:37:01;93933.31;;;19.82;69.04
11682;BME280;5897;42.640;23.310;2022-08-03T02:39:31;93938.78;;;19.82;69.63
11682;BME280;5897;42.640;23.310;2022-08-03T02:42:00;93927.47;;;19.69;70.03
11682;BME280;5897;42.640;23.310;2022-08-03T02:44:29;93933.69;;;19.70;70.10
11682;BME280;5897;42.640;23.310;2022-08-03T02:47:01;93931.38;;;19.63;70.51
11682;BME280;5897;42.640;23.310;2022-08-03T02:49:29;93906.03;;;19.42;69.80
11682;BME280;5897;42.640;23.310;2022-08-03T02:51:58;93927.84;;;19.57;69.53
11682;BME280;5897;42.640;23.310;2022-08-03T02:54:27;93932.59;;;19.56;69.14
11682;BME280;5897;42.640;23.310;2022-08-03T02:56:55;93910.53;;;19.45;69.34
11682;BME280;5897;42.640;23.310;2022-08-03T02:59:24;93941.63;;;19.62;69.62
11682;BME280;5897;42.640;23.310;2022-08-03T03:01:52;93939.59;;;19.63;69.66
11682;BME280;5897;42.640;23.310;2022-08-03T03:04:20;93941.06;;;19.58;69.49
11682;BME280;5897;42.640;23.310;2022-08-03T03:06:49;93944.28;;;19.57;69.36
11682;BME280;5897;42.640;23.310;2022-08-03T03:09:19;93940.19;;;19.47;69.69
11682;BME280;5897;42.640;23.310;2022-08-03T03:11:48;93943.13;;;19.43;70.46
11682;BME280;5897;42.640;23.310;2022-08-03T03:14:16;93949.38;;;19.44;70.55
11682;BME280;5897;42.640;23.310;2022-08-03T03:16:45;93952.13;;;19.44;70.62
11682;BME280;5897;42.640;23.310;2022-08-03T03:19:14;93963.63;;;19.28;71.49
11682;BME280;5897;42.640;23.310;2022-08-03T03:21:43;93969.59;;;19.26;72.39
11682;BME280;5897;42.640;23.310;2022-08-03T03:24:10;93966.72;;;19.35;71.98
11682;BME280;5897;42.640;23.310;2022-08-03T03:26:39;93972.66;;;19.34;72.15
11682;BME280;5897;42.640;23.310;2022-08-03T03:29:06;93971.44;;;19.35;72.17
11682;BME280;5897;42.640;23.310;2022-08-03T03:31:34;93976.22;;;19.40;72.58
11682;BME280;5897;42.640;23.310;2022-08-03T03:34:01;93976.63;;;19.13;73.75
11682;BME280;5897;42.640;23.310;2022-08-03T03:36:29;93980.13;;;19.13;74.09
11682;BME280;5897;42.640;23.310;2022-08-03T03:38:56;93977.28;;;19.08;74.53
11682;BME280;5897;42.640;23.310;2022-08-03T03:41:23;93979.28;;;19.07;74.78
11682;BME280;5897;42.640;23.310;2022-08-03T03:43:51;93973.41;;;19.14;74.86
11682;BME280;5897;42.640;23.310;2022-08-03T03:46:18;93979.59;;;19.29;73.33
11682;BME280;5897;42.640;23.310;2022-08-03T03:48:45;93980.88;;;19.14;73.79
11682;BME280;5897;42.640;23.310;2022-08-03T03:51:12;93971.28;;;19.04;74.62
11682;BME280;5897;42.640;23.310;2022-08-03T03:53:38;93980.59;;;18.92;75.03
11682;BME280;5897;42.640;23.310;2022-08-03T03:56:05;93982.84;;;18.93;75.81
11682;BME280;5897;42.640;23.310;2022-08-03T03:58:32;93977.25;;;19.02;76.33
11682;BME280;5897;42.640;23.310;2022-08-03T04:01:00;93986.97;;;19.03;76.62
11682;BME280;5897;42.640;23.310;2022-08-03T04:03:27;93990.31;;;19.13;76.39
11682;BME280;5897;42.640;23.310;2022-08-03T04:05:54;93974.84;;;19.30;74.60
11682;BME280;5897;42.640;23.310;2022-08-03T04:08:39;93980.00;;;19.42;74.29
11682;BME280;5897;42.640;23.310;2022-08-03T04:11:40;93977.59;;;19.50;74.79
11682;BME280;5897;42.640;23.310;2022-08-03T04:14:12;93975.66;;;19.56;73.64
11682;BME280;5897;42.640;23.310;2022-08-03T04:16:45;93981.25;;;19.67;72.71
11682;BME280;5897;42.640;23.310;2022-08-03T04:19:16;93979.13;;;19.76;72.16
11682;BME280;5897;42.640;23.310;2022-08-03T04:21:46;93984.94;;;19.84;70.98
11682;BME280;5897;42.640;23.310;2022-08-03T04:24:14;93967.66;;;19.78;70.07
11682;BME280;5897;42.640;23.310;2022-08-03T04:26:44;93979.34;;;19.98;69.15
11682;BME280;5897;42.640;23.310;2022-08-03T04:29:12;93978.22;;;20.10;68.11
11682;BME280;5897;42.640;23.310;2022-08-03T04:31:42;93983.25;;;20.17;68.21
11682;BME280;5897;42.640;23.310;2022-08-03T04:34:11;93983.84;;;20.27;68.64
11682;BME280;5897;42.640;23.310;2022-08-03T04:36:43;93985.47;;;20.44;68.46
11682;BME280;5897;42.640;23.310;2022-08-03T04:39:13;93961.69;;;20.30;68.13
11682;BME280;5897;42.640;23.310;2022-08-03T04:41:42;93979.59;;;20.57;68.29
11682;BME280;5897;42.640;23.310;2022-08-03T04:44:12;93986.66;;;20.69;67.71
11682;BME280;5897;42.640;23.310;2022-08-03T04:46:39;93994.69;;;20.78;67.30
11682;BME280;5897;42.640;23.310;2022-08-03T04:49:10;94003.03;;;20.89;67.86
11682;BME280;5897;42.640;23.310;2022-08-03T04:51:37;93995.84;;;20.97;68.15
11682;BME280;5897;42.640;23.310;2022-08-03T04:54:05;93993.41;;;21.10;67.70
11682;BME280;5897;42.640;23.310;2022-08-03T04:56:32;94003.47;;;21.18;67.92
11682;BME280;5897;42.640;23.310;2022-08-03T04:58:59;93995.28;;;21.29;67.77
11682;BME280;5897;42.640;23.310;2022-08-03T05:01:26;94007.31;;;21.43;67.91
11682;BME280;5897;42.640;23.310;2022-08-03T05:03:53;94000.81;;;21.46;67.24
11682;BME280;5897;42.640;23.310;2022-08-03T05:06:21;94000.88;;;21.57;66.67
11682;BME280;5897;42.640;23.310;2022-08-03T05:08:49;94014.69;;;21.68;66.59
11682;BME280;5897;42.640;23.310;2022-08-03T05:11:16;94009.22;;;21.79;66.95
11682;BME280;5897;42.640;23.310;2022-08-03T05:13:43;94015.25;;;21.83;66.81
11682;BME280;5897;42.640;23.310;2022-08-03T05:16:10;94018.03;;;21.94;65.81
11682;BME280;5897;42.640;23.310;2022-08-03T05:18:38;94021.50;;;21.94;65.46
11682;BME280;5897;42.640;23.310;2022-08-03T05:21:04;94018.81;;;22.11;64.30
11682;BME280;5897;42.640;23.310;2022-08-03T05:23:33;94023.81;;;22.12;64.15
11682;BME280;5897;42.640;23.310;2022-08-03T05:26:00;94030.81;;;22.19;62.83
11682;BME280;5897;42.640;23.310;2022-08-03T05:28:26;94030.59;;;22.28;62.61
11682;BME280;5897;42.640;23.310;2022-08-03T05:30:53;94026.81;;;22.31;62.66
11682;BME280;5897;42.640;23.310;2022-08-03T05:33:22;94033.59;;;22.41;62.13
11682;BME280;5897;42.640;23.310;2022-08-03T05:35:49;94033.38;;;22.44;62.38
11682;BME280;5897;42.640;23.310;2022-08-03T05:38:16;94037.16;;;22.52;63.11
11682;BME280;5897;42.640;23.310;2022-08-03T05:40:44;94039.38;;;22.65;62.53
11682;BME280;5897;42.640;23.310;2022-08-03T05:43:11;94032.91;;;22.68;62.15
11682;BME280;5897;42.640;23.310;2022-08-03T05:45:37;94043.66;;;22.77;61.49
11682;BME280;5897;42.640;23.310;2022-08-03T05:48:05;94044.38;;;22.83;60.98
11682;BME280;5897;42.640;23.310;2022-08-03T05:50:31;94042.13;;;22.98;60.62
11682;BME280;5897;42.640;23.310;2022-08-03T05:52:58;94041.63;;;22.99;60.67
11682;BME280;5897;42.640;23.310;2022-08-03T05:55:25;94041.34;;;23.08;60.42
11682;BME280;5897;42.640;23.310;2022-08-03T05:57:53;94044.88;;;23.09;59.01
11682;BME280;5897;42.640;23.310;2022-08-03T06:00:20;94043.88;;;23.17;58.89
11682;BME280;5897;42.640;23.310;2022-08-03T06:02:47;94050.91;;;22.69;59.45
11682;BME280;5897;42.640;23.310;2022-08-03T06:05:14;94044.63;;;22.90;59.97
11682;BME280;5897;42.640;23.310;2022-08-03T06:07:40;94000.31;;;22.72;59.73
11682;BME280;5897;42.640;23.310;2022-08-03T06:10:07;94051.13;;;23.15;59.63
11682;BME280;5897;42.640;23.310;2022-08-03T06:12:34;94048.88;;;23.24;59.69
11682;BME280;5897;42.640;23.310;2022-08-03T06:15:03;94052.38;;;23.36;58.01
11682;BME280;5897;42.640;23.310;2022-08-03T06:17:30;94052.59;;;23.38;59.24
11682;BME280;5897;42.640;23.310;2022-08-03T06:19:57;94044.03;;;23.52;58.44
11682;BME280;5897;42.640;23.310;2022-08-03T06:22:24;94040.56;;;23.52;58.29
11682;BME280;5897;42.640;23.310;2022-08-03T06:24:51;94046.00;;;23.63;57.89
11682;BME280;5897;42.640;23.310;2022-08-03T06:27:17;94050.25;;;23.75;57.81
11682;BME280;5897;42.640;23.310;2022-08-03T06:29:44;94057.22;;;23.87;56.96
11682;BME280;5897;42.640;23.310;2022-08-03T06:32:12;94062.44;;;23.96;56.92
11682;BME280;5897;42.640;23.310;2022-08-03T06:34:39;94056.41;;;24.03;57.10
11682;BME280;5897;42.640;23.310;2022-08-03T06:37:06;94051.31;;;24.18;58.01
11682;BME280;5897;42.640;23.310;2022-08-03T06:39:35;94044.34;;;24.06;55.79
11682;BME280;5897;42.640;23.310;2022-08-03T06:42:01;94049.16;;;23.94;57.00
11682;BME280;5897;42.640;23.310;2022-08-03T06:44:29;94051.13;;;24.05;57.31
11682;BME280;5897;42.640;23.310;2022-08-03T06:46:58;94052.03;;;24.24;57.05
11682;BME280;5897;42.640;23.310;2022-08-03T06:49:28;94051.25;;;24.29;54.74
11682;BME280;5897;42.640;23.310;2022-08-03T06:51:55;94048.63;;;24.42;56.38
11682;BME280;5897;42.640;23.310;2022-08-03T06:54:22;94008.16;;;24.15;57.12
11682;BME280;5897;42.640;23.310;2022-08-03T06:56:49;94047.84;;;24.52;54.49
11682;BME280;5897;42.640;23.310;2022-08-03T06:59:19;94046.50;;;24.24;57.54
11682;BME280;5897;42.640;23.310;2022-08-03T07:01:46;94044.59;;;24.48;56.81
11682;BME280;5897;42.640;23.310;2022-08-03T07:04:13;94047.50;;;24.67;56.15
11682;BME280;5897;42.640;23.310;2022-08-03T07:06:41;94042.00;;;24.61;56.57
11682;BME280;5897;42.640;23.310;2022-08-03T07:09:07;94038.09;;;24.81;54.10
11682;BME280;5897;42.640;23.310;2022-08-03T07:11:34;94035.94;;;24.98;55.03
11682;BME280;5897;42.640;23.310;2022-08-03T07:14:01;94043.91;;;25.07;54.49
11682;BME280;5897;42.640;23.310;2022-08-03T07:16:28;94047.75;;;24.98;55.22
11682;BME280;5897;42.640;23.310;2022-08-03T07:18:55;94050.81;;;25.19;55.82
11682;BME280;5897;42.640;23.310;2022-08-03T07:21:22;94051.66;;;25.38;53.60
11682;BME280;5897;42.640;23.310;2022-08-03T07:23:50;94057.31;;;25.51;53.71
11682;BME280;5897;42.640;23.310;2022-08-03T07:26:19;94057.75;;;25.55;52.78
11682;BME280;5897;42.640;23.310;2022-08-03T07:28:46;94056.28;;;25.54;52.18
11682;BME280;5897;42.640;23.310;2022-08-03T07:31:13;94061.81;;;25.54;53.11
11682;BME280;5897;42.640;23.310;2022-08-03T07:33:39;94058.31;;;25.72;52.08
11682;BME280;5897;42.640;23.310;2022-08-03T07:36:06;94067.47;;;25.91;50.71
11682;BME280;5897;42.640;23.310;2022-08-03T07:38:33;94042.16;;;26.00;50.68
11682;BME280;5897;42.640;23.310;2022-08-03T07:41:02;94058.94;;;26.26;48.65
11682;BME280;5897;42.640;23.310;2022-08-03T07:43:29;94056.25;;;26.39;49.89
11682;BME280;5897;42.640;23.310;2022-08-03T07:45:56;94047.56;;;26.29;51.04
11682;BME280;5897;42.640;23.310;2022-08-03T07:48:23;94058.63;;;26.48;45.88
11682;BME280;5897;42.640;23.310;2022-08-03T07:50:49;94064.47;;;26.63;46.16
11682;BME280;5897;42.640;23.310;2022-08-03T07:53:17;94059.28;;;26.72;45.95
11682;BME280;5897;42.640;23.310;2022-08-03T07:55:47;94043.94;;;26.71;44.82
11682;BME280;5897;42.640;23.310;2022-08-03T07:58:15;94047.84;;;26.63;44.20
11682;BME280;5897;42.640;23.310;2022-08-03T08:00:42;94033.97;;;26.44;42.51
11682;BME280;5897;42.640;23.310;2022-08-03T08:03:09;94068.19;;;26.84;44.52
11682;BME280;5897;42.640;23.310;2022-08-03T08:05:36;94063.47;;;27.10;41.66
11682;BME280;5897;42.640;23.310;2022-08-03T08:08:03;94063.66;;;27.31;41.00
11682;BME280;5897;42.640;23.310;2022-08-03T08:10:30;94062.03;;;27.35;39.95
11682;BME280;5897;42.640;23.310;2022-08-03T08:12:58;94047.00;;;27.18;42.17
11682;BME280;5897;42.640;23.310;2022-08-03T08:15:27;94065.38;;;27.47;40.99
11682;BME280;5897;42.640;23.310;2022-08-03T08:17:54;94069.25;;;27.57;41.43
11682;BME280;5897;42.640;23.310;2022-08-03T08:20:24;94068.16;;;27.60;44.10
11682;BME280;5897;42.640;23.310;2022-08-03T08:22:51;94069.44;;;27.59;43.22
11682;BME280;5897;42.640;23.310;2022-08-03T08:25:18;94072.47;;;27.87;40.86
11682;BME280;5897;42.640;23.310;2022-08-03T08:27:46;94070.13;;;28.04;41.52
11682;BME280;5897;42.640;23.310;2022-08-03T08:30:15;94066.34;;;28.14;38.98
11682;BME280;5897;42.640;23.310;2022-08-03T08:32:44;94062.84;;;28.14;40.14
11682;BME280;5897;42.640;23.310;2022-08-03T08:35:11;94061.75;;;28.17;39.19
11682;BME280;5897;42.640;23.310;2022-08-03T08:37:39;94063.47;;;28.20;41.60
11682;BME280;5897;42.640;23.310;2022-08-03T08:40:07;94054.03;;;28.36;41.19
11682;BME280;5897;42.640;23.310;2022-08-03T08:42:36;94051.06;;;28.47;39.93
11682;BME280;5897;42.640;23.310;2022-08-03T08:45:04;94062.81;;;28.40;39.80
11682;BME280;5897;42.640;23.310;2022-08-03T08:47:36;94061.00;;;28.29;40.94
11682;BME280;5897;42.640;23.310;2022-08-03T08:50:06;94056.22;;;28.63;38.63
11682;BME280;5897;42.640;23.310;2022-08-03T08:52:34;94056.06;;;28.82;37.69
11682;BME280;5897;42.640;23.310;2022-08-03T08:55:03;94050.00;;;28.91;38.83
11682;BME280;5897;42.640;23.310;2022-08-03T08:57:33;94048.13;;;29.06;38.01
11682;BME280;5897;42.640;23.310;2022-08-03T09:00:04;94044.97;;;29.02;36.82
11682;BME280;5897;42.640;23.310;2022-08-03T09:02:31;94048.44;;;28.82;38.16
11682;BME280;5897;42.640;23.310;2022-08-03T09:04:59;94040.53;;;29.07;38.33
11682;BME280;5897;42.640;23.310;2022-08-03T09:07:28;94024.59;;;29.07;39.43
11682;BME280;5897;42.640;23.310;2022-08-03T09:09:55;94049.13;;;29.37;37.48
11682;BME280;5897;42.640;23.310;2022-08-03T09:12:21;94049.34;;;29.39;35.11
11682;BME280;5897;42.640;23.310;2022-08-03T09:14:48;94048.22;;;29.55;36.89
11682;BME280;5897;42.640;23.310;2022-08-03T09:17:15;94049.41;;;29.67;36.13
11682;BME280;5897;42.640;23.310;2022-08-03T09:19:42;94051.91;;;29.85;33.43
11682;BME280;5897;42.640;23.310;2022-08-03T09:22:10;94050.38;;;29.77;35.77
11682;BME280;5897;42.640;23.310;2022-08-03T09:24:53;94011.97;;;29.83;35.06
11682;BME280;5897;42.640;23.310;2022-08-03T09:27:21;94051.59;;;30.24;36.23
11682;BME280;5897;42.640;23.310;2022-08-03T09:29:48;94047.59;;;30.48;35.09
11682;BME280;5897;42.640;23.310;2022-08-03T09:32:18;94049.19;;;30.79;33.27
11682;BME280;5897;42.640;23.310;2022-08-03T09:34:45;94039.56;;;30.95;32.60
11682;BME280;5897;42.640;23.310;2022-08-03T09:37:13;94042.19;;;31.15;32.79
11682;BME280;5897;42.640;23.310;2022-08-03T09:39:41;94033.66;;;31.21;32.87
11682;BME280;5897;42.640;23.310;2022-08-03T09:42:11;94036.44;;;31.51;30.19
11682;BME280;5897;42.640;23.310;2022-08-03T09:44:39;94041.09;;;31.78;31.35
11682;BME280;5897;42.640;23.310;2022-08-03T09:47:08;94030.44;;;31.92;31.45
11682;BME280;5897;42.640;23.310;2022-08-03T09:49:35;94031.38;;;31.94;31.04
11682;BME280;5897;42.640;23.310;2022-08-03T09:52:12;94034.69;;;32.00;31.18
11682;BME280;5897;42.640;23.310;2022-08-03T09:54:39;94037.66;;;32.10;30.98
11682;BME280;5897;42.640;23.310;2022-08-03T09:57:08;94027.22;;;32.18;30.36
11682;BME280;5897;42.640;23.310;2022-08-03T09:59:45;94028.19;;;31.98;30.80
11682;BME280;5897;42.640;23.310;2022-08-03T10:02:20;94030.66;;;31.86;28.85
11682;BME280;5897;42.640;23.310;2022-08-03T10:04:49;94033.22;;;31.99;31.04
11682;BME280;5897;42.640;23.310;2022-08-03T10:07:17;94024.69;;;31.75;32.47
11682;BME280;5897;42.640;23.310;2022-08-03T10:09:53;94030.94;;;32.20;32.04
11682;BME280;5897;42.640;23.310;2022-08-03T10:12:22;94012.47;;;32.25;30.31
11682;BME280;5897;42.640;23.310;2022-08-03T10:14:48;94019.38;;;32.16;30.18
11682;BME280;5897;42.640;23.310;2022-08-03T10:17:16;94010.97;;;32.24;28.79
11682;BME280;5897;42.640;23.310;2022-08-03T10:19:43;94013.38;;;32.35;28.83
11682;BME280;5897;42.640;23.310;2022-08-03T10:22:13;94012.63;;;32.34;29.65
11682;BME280;5897;42.640;23.310;2022-08-03T10:24:47;94014.59;;;32.49;29.74
11682;BME280;5897;42.640;23.310;2022-08-03T10:27:15;94016.03;;;32.10;29.62
11682;BME280;5897;42.640;23.310;2022-08-03T10:29:49;94008.56;;;32.28;29.80
11682;BME280;5897;42.640;23.310;2022-08-03T10:32:21;94009.03;;;31.79;30.06
11682;BME280;5897;42.640;23.310;2022-08-03T10:34:53;94004.22;;;31.80;31.00
11682;BME280;5897;42.640;23.310;2022-08-03T10:37:25;94010.88;;;31.99;30.76
11682;BME280;5897;42.640;23.310;2022-08-03T10:39:57;94003.88;;;32.30;30.38
11682;BME280;5897;42.640;23.310;2022-08-03T10:42:27;93994.31;;;32.41;29.98
11682;BME280;5897;42.640;23.310;2022-08-03T10:45:03;94000.72;;;32.34;31.11
11682;BME280;5897;42.640;23.310;2022-08-03T10:47:30;93997.22;;;32.58;29.34
11682;BME280;5897;42.640;23.310;2022-08-03T10:49:59;93994.31;;;32.73;29.26
11682;BME280;5897;42.640;23.310;2022-08-03T10:52:26;93997.41;;;33.41;28.72
11682;BME280;5897;42.640;23.310;2022-08-03T10:54:53;93990.56;;;33.59;28.55
11682;BME280;5897;42.640;23.310;2022-08-03T10:57:44;93999.34;;;33.72;28.21
11682;BME280;5897;42.640;23.310;2022-08-03T11:00:13;93988.44;;;34.18;27.52
11682;BME280;5897;42.640;23.310;2022-08-03T11:03:06;93992.06;;;34.11;26.94
11682;BME280;5897;42.640;23.310;2022-08-03T11:05:36;93988.59;;;34.03;27.64
11682;BME280;5897;42.640;23.310;2022-08-03T11:11:24;93997.63;;;34.79;26.22
11682;BME280;5897;42.640;23.310;2022-08-03T11:13:57;93983.22;;;35.01;26.19
11682;BME280;5897;42.640;23.310;2022-08-03T11:16:26;93987.00;;;34.87;26.25
11682;BME280;5897;42.640;23.310;2022-08-03T11:18:58;93973.19;;;34.98;27.06
11682;BME280;5897;42.640;23.310;2022-08-03T11:21:52;93977.44;;;35.26;26.56
11682;BME280;5897;42.640;23.310;2022-08-03T11:27:22;93975.81;;;34.96;26.10
11682;BME280;5897;42.640;23.310;2022-08-03T11:29:54;93979.84;;;35.39;25.49
11682;BME280;5897;42.640;23.310;2022-08-03T11:32:55;93973.56;;;35.67;24.88
11682;BME280;5897;42.640;23.310;2022-08-03T11:35:23;93966.81;;;35.89;24.63
11682;BME280;5897;42.640;23.310;2022-08-03T11:38:07;93942.25;;;35.89;24.34
11682;BME280;5897;42.640;23.310;2022-08-03T11:40:40;93960.31;;;36.24;23.48
11682;BME280;5897;42.640;23.310;2022-08-03T11:43:08;93962.22;;;36.31;23.01
11682;BME280;5897;42.640;23.310;2022-08-03T11:45:36;93957.97;;;36.21;22.56
11682;BME280;5897;42.640;23.310;2022-08-03T11:48:15;93942.09;;;36.16;22.03
11682;BME280;5897;42.640;23.310;2022-08-03T11:50:42;93953.63;;;35.72;22.19
11682;BME280;5897;42.640;23.310;2022-08-03T11:53:15;93944.44;;;36.00;22.93
11682;BME280;5897;42.640;23.310;2022-08-03T11:55:44;93937.50;;;36.20;24.63
11682;BME280;5897;42.640;23.310;2022-08-03T11:58:20;93936.56;;;36.56;24.48
11682;BME280;5897;42.640;23.310;2022-08-03T12:00:48;93941.16;;;36.70;22.93
11682;BME280;5897;42.640;23.310;2022-08-03T12:03:18;93944.69;;;36.80;23.89
11682;BME280;5897;42.640;23.310;2022-08-03T12:05:46;93947.13;;;36.17;23.42
11682;BME280;5897;42.640;23.310;2022-08-03T12:08:17;93954.63;;;35.67;24.47
11682;BME280;5897;42.640;23.310;2022-08-03T12:10:48;93943.88;;;35.28;24.34
11682;BME280;5897;42.640;23.310;2022-08-03T12:13:16;93947.75;;;34.70;25.40
11682;BME280;5897;42.640;23.310;2022-08-03T12:15:49;93950.66;;;34.19;25.99
11682;BME280;5897;42.640;23.310;2022-08-03T12:18:19;93946.41;;;34.71;26.56
11682;BME280;5897;42.640;23.310;2022-08-03T12:20:47;93937.72;;;35.03;25.30
11682;BME280;5897;42.640;23.310;2022-08-03T12:23:14;93942.63;;;35.12;24.81
11682;BME280;5897;42.640;23.310;2022-08-03T12:25:42;93938.34;;;35.56;25.12
11682;BME280;5897;42.640;23.310;2022-08-03T12:28:12;93930.63;;;35.57;24.26
11682;BME280;5897;42.640;23.310;2022-08-03T12:30:42;93922.06;;;35.64;24.97
11682;BME280;5897;42.640;23.310;2022-08-03T12:33:13;93931.59;;;35.88;24.68
11682;BME280;5897;42.640;23.310;2022-08-03T12:35:41;93940.78;;;34.97;25.58
11682;BME280;5897;42.640;23.310;2022-08-03T12:38:09;93933.84;;;34.72;25.72
11682;BME280;5897;42.640;23.310;2022-08-03T12:40:37;93944.47;;;34.37;25.17
11682;BME280;5897;42.640;23.310;2022-08-03T12:43:10;93938.88;;;34.03;25.56
11682;BME280;5897;42.640;23.310;2022-08-03T12:45:37;93936.97;;;33.72;25.76
11682;BME280;5897;42.640;23.310;2022-08-03T12:48:09;93935.75;;;33.82;26.70
11682;BME280;5897;42.640;23.310;2022-08-03T12:50:37;93919.31;;;34.30;26.24
11682;BME280;5897;42.640;23.310;2022-08-03T12:53:07;93928.97;;;34.99;24.56
11682;BME280;5897;42.640;23.310;2022-08-03T12:55:34;93933.69;;;34.96;25.31
11682;BME280;5897;42.640;23.310;2022-08-03T12:58:03;93928.75;;;35.14;23.92
11682;BME280;5897;42.640;23.310;2022-08-03T13:00:30;93928.09;;;35.32;25.19
11682;BME280;5897;42.640;23.310;2022-08-03T13:03:01;93917.78;;;35.54;25.42
11682;BME280;5897;42.640;23.310;2022-08-03T13:05:29;93902.81;;;35.51;24.92
11682;BME280;5897;42.640;23.310;2022-08-03T13:07:57;93912.28;;;35.65;25.79
11682;BME280;5897;42.640;23.310;2022-08-03T13:10:30;93912.75;;;35.62;25.90
11682;BME280;5897;42.640;23.310;2022-08-03T13:12:58;93908.13;;;35.47;25.53
11682;BME280;5897;42.640;23.310;2022-08-03T13:15:28;93896.94;;;35.66;23.57
11682;BME280;5897;42.640;23.310;2022-08-03T13:17:55;93901.38;;;35.79;23.29